Time;durP1;ratioP1;P1;durP2;ratioP2;P2;SDS_P1;SDS_P2;PMS_P1;PMS_P2;Temp;Humidity;BMP_temperature;BMP_pressure;BME280_temperature;BME280_humidity;BME280_pressure;Samples;Min_cycle;Max_cycle;Signal;HPM_P1;HPM_P2
2021/12/29 00:01:56;;;;;;;11.23;1.63;;;9.20;99.90;;;;;;5017135;28;20021;-76
2021/12/29 00:04:22;;;;;;;8.50;1.88;;;9.30;99.90;;;;;;5043269;28;20025;-77
2021/12/29 00:06:49;;;;;;;10.77;2.33;;;9.30;99.90;;;;;;5036550;28;20028;-77
2021/12/29 00:09:15;;;;;;;2.88;0.55;;;9.20;99.90;;;;;;5054293;28;20063;-77
2021/12/29 00:11:41;;;;;;;8.27;1.38;;;9.20;99.90;;;;;;5054292;28;20055;-77
2021/12/29 00:14:08;;;;;;;11.95;1.90;;;9.20;99.90;;;;;;5054508;28;20017;-77
2021/12/29 00:16:35;;;;;;;11.13;2.08;;;9.20;99.90;;;;;;5054227;28;20020;-77
2021/12/29 00:19:03;;;;;;;5.13;1.38;;;9.20;99.90;;;;;;5053543;28;20032;-76
2021/12/29 00:21:29;;;;;;;9.73;1.77;;;9.20;99.90;;;;;;5036355;28;20025;-77
2021/12/29 00:23:58;;;;;;;6.10;1.20;;;9.20;99.90;;;;;;5054170;28;20052;-77
2021/12/29 00:26:26;;;;;;;16.70;2.65;;;9.30;99.90;;;;;;5054400;28;20393;-76
2021/12/29 00:28:52;;;;;;;13.13;2.88;;;9.30;99.90;;;;;;5054440;28;20377;-77
2021/12/29 00:31:17;;;;;;;17.65;1.40;;;9.20;99.90;;;;;;5054330;28;20017;-77
2021/12/29 00:33:43;;;;;;;8.65;1.15;;;9.20;99.90;;;;;;5054035;28;20025;-76
2021/12/29 00:36:08;;;;;;;13.35;2.58;;;9.20;99.90;;;;;;5036188;28;20029;-77
2021/12/29 00:38:34;;;;;;;8.80;1.58;;;9.20;99.90;;;;;;5036039;28;20381;-76
2021/12/29 00:40:59;;;;;;;15.48;2.33;;;9.20;99.90;;;;;;5053881;28;20481;-76
2021/12/29 00:43:25;;;;;;;7.72;1.73;;;9.20;99.90;;;;;;5054075;28;20032;-77
2021/12/29 00:45:51;;;;;;;15.82;2.03;;;9.20;99.90;;;;;;5036316;28;20104;-77
2021/12/29 00:48:18;;;;;;;10.07;1.63;;;9.20;99.90;;;;;;5036071;28;20027;-76
2021/12/29 00:50:44;;;;;;;11.73;2.63;;;9.20;99.90;;;;;;5036078;28;20017;-78
2021/12/29 00:53:10;;;;;;;8.65;1.95;;;9.20;99.90;;;;;;5018607;28;20039;-78
2021/12/29 00:55:37;;;;;;;12.00;1.60;;;9.20;99.90;;;;;;5017108;28;20018;-80
2021/12/29 00:58:06;;;;;;;15.02;1.90;;;9.20;99.90;;;;;;5034868;28;20082;-79
2021/12/29 01:00:37;;;;;;;11.23;2.10;;;10.30;99.90;;;;;;5033845;28;20102;-77
2021/12/29 01:03:04;;;;;;;9.45;1.70;;;9.20;99.90;;;;;;5015938;28;20029;-78
2021/12/29 01:05:30;;;;;;;17.33;3.08;;;9.20;99.90;;;;;;5034088;28;20531;-79
2021/12/29 01:07:55;;;;;;;10.48;1.65;;;9.20;99.90;;;;;;5016427;28;20481;-79
2021/12/29 01:10:21;;;;;;;17.42;2.47;;;9.20;99.90;;;;;;5053573;28;20096;-79
2021/12/29 01:12:56;;;;;;;15.68;1.92;;;9.20;99.90;;;;;;5053702;28;20013;-77
2021/12/29 01:15:31;;;;;;;8.50;1.65;;;9.20;99.90;;;;;;5053780;28;20017;-77
2021/12/29 01:17:58;;;;;;;7.60;1.00;;;9.20;99.90;;;;;;5053504;28;20075;-77
2021/12/29 01:20:25;;;;;;;10.40;2.10;;;9.20;99.90;;;;;;5053430;28;20021;-77
2021/12/29 01:22:51;;;;;;;6.70;0.77;;;9.20;99.90;;;;;;5053367;28;20116;-77
2021/12/29 01:25:18;;;;;;;5.72;0.55;;;9.20;99.90;;;;;;5051705;28;20032;-77
2021/12/29 01:27:43;;;;;;;5.35;0.73;;;9.20;99.90;;;;;;5035550;28;20025;-77
2021/12/29 01:30:11;;;;;;;6.70;0.57;;;9.20;99.90;;;;;;5053365;28;20047;-77
2021/12/29 01:32:38;;;;;;;7.05;0.35;;;9.20;99.90;;;;;;5053193;28;20021;-77
2021/12/29 01:35:05;;;;;;;3.67;0.38;;;9.20;99.90;;;;;;5053449;28;20029;-77
2021/12/29 01:37:30;;;;;;;10.35;1.77;;;9.20;99.90;;;;;;5035337;28;20512;-77
2021/12/29 01:39:56;;;;;;;6.40;1.75;;;9.20;99.90;;;;;;5053170;28;20025;-77
2021/12/29 01:42:22;;;;;;;7.55;1.30;;;9.20;99.90;;;;;;5043438;28;20148;-77
2021/12/29 01:44:47;;;;;;;13.68;2.03;;;9.20;99.90;;;;;;5033460;28;20030;-77
2021/12/29 01:47:27;;;;;;;14.40;1.00;;;9.20;99.90;;;;;;5033184;28;20036;-77
2021/12/29 01:49:53;;;;;;;8.18;1.00;;;9.20;99.90;;;;;;5033522;28;20021;-77
2021/12/29 01:52:23;;;;;;;11.23;1.33;;;9.10;99.90;;;;;;5033104;28;20048;-77
2021/12/29 01:54:49;;;;;;;9.88;0.80;;;9.10;99.90;;;;;;5033447;28;20037;-77
2021/12/29 01:57:15;;;;;;;13.43;1.13;;;9.10;99.90;;;;;;5015489;28;20018;-77
2021/12/29 01:59:41;;;;;;;9.20;1.00;;;9.10;99.90;;;;;;5046002;28;20037;-78
2021/12/29 02:02:07;;;;;;;8.18;2.00;;;9.20;99.90;;;;;;5034986;28;20017;-77
2021/12/29 02:04:32;;;;;;;9.02;0.80;;;9.10;99.90;;;;;;5051086;28;20029;-78
2021/12/29 02:06:58;;;;;;;8.48;1.33;;;9.10;99.90;;;;;;5053032;28;20025;-78
2021/12/29 02:09:24;;;;;;;13.30;1.10;;;9.10;99.90;;;;;;5052907;28;20025;-77
2021/12/29 02:11:51;;;;;;;7.47;0.85;;;9.10;99.90;;;;;;5056066;28;20028;-77
2021/12/29 02:14:16;;;;;;;21.45;2.22;;;9.10;99.90;;;;;;5038688;28;20393;-77
2021/12/29 02:16:42;;;;;;;5.50;0.60;;;9.10;99.90;;;;;;5056766;28;20021;-78
2021/12/29 02:19:10;;;;;;;13.85;1.48;;;9.10;99.90;;;;;;5044345;28;20033;-78
2021/12/29 02:21:38;;;;;;;12.32;0.85;;;9.10;99.90;;;;;;5036810;28;20026;-78
2021/12/29 02:26:37;;;;;;;8.90;1.35;;;9.20;99.90;;;;;;5036574;28;20497;-77
2021/12/29 02:29:05;;;;;;;10.38;0.73;;;9.20;99.90;;;;;;5036486;28;20021;-77
2021/12/29 02:31:31;;;;;;;9.60;1.45;;;9.20;99.90;;;;;;5019778;28;20148;-77
2021/12/29 02:34:00;;;;;;;9.30;1.00;;;9.20;99.90;;;;;;5036466;28;20080;-77
2021/12/29 02:36:26;;;;;;;;;;;9.20;99.90;;;;;;5018756;28;20043;-77
2021/12/29 02:38:55;;;;;;;9.35;0.77;;;9.20;99.90;;;;;;5018612;28;19905;-77
2021/12/29 02:41:23;;;;;;;13.40;0.95;;;9.20;99.90;;;;;;5018491;28;20479;-78
2021/12/29 02:43:54;;;;;;;9.60;0.93;;;9.20;99.90;;;;;;5019520;28;20028;-78
2021/12/29 02:46:20;;;;;;;10.32;1.10;;;9.20;99.90;;;;;;5055935;28;20295;-78
2021/12/29 02:48:54;;;;;;;10.68;0.77;;;9.20;99.90;;;;;;5056022;28;20064;-77
2021/12/29 02:51:20;;;;;;;10.88;1.83;;;9.10;99.90;;;;;;5055779;28;20038;-78
2021/12/29 02:53:46;;;;;;;15.05;1.85;;;9.10;99.90;;;;;;5037866;28;20547;-78
2021/12/29 02:56:12;;;;;;;13.95;1.23;;;9.10;99.90;;;;;;5056179;28;20017;-78
2021/12/29 02:58:37;;;;;;;4.75;0.73;;;9.10;99.90;;;;;;5037735;28;20075;-77
2021/12/29 03:01:10;;;;;;;9.43;0.85;;;9.20;99.90;;;;;;5049808;28;20063;-77
2021/12/29 03:03:39;;;;;;;18.35;1.25;;;9.20;99.90;;;;;;5035918;28;20504;-77
2021/12/29 03:06:06;;;;;;;4.55;0.28;;;9.10;99.90;;;;;;5044323;28;20029;-77
2021/12/29 03:08:32;;;;;;;7.30;0.75;;;9.20;99.90;;;;;;5024131;28;20030;-78
2021/12/29 03:10:58;;;;;;;10.40;1.00;;;9.10;99.90;;;;;;5035766;28;20431;-78
2021/12/29 03:13:26;;;;;;;4.53;0.35;;;9.10;99.90;;;;;;5035511;28;20021;-78
2021/12/29 03:15:52;;;;;;;6.17;0.37;;;9.20;99.90;;;;;;5017831;28;20025;-79
2021/12/29 03:18:18;;;;;;;15.50;2.15;;;9.10;99.90;;;;;;5047434;28;20063;-79
2021/12/29 03:20:45;;;;;;;7.53;0.65;;;9.10;99.90;;;;;;5055516;28;20075;-78
2021/12/29 03:23:11;;;;;;;8.95;0.70;;;9.10;99.90;;;;;;5054326;28;20065;-78
2021/12/29 03:25:36;;;;;;;9.50;1.73;;;9.10;99.90;;;;;;5055690;28;20083;-78
2021/12/29 03:28:03;;;;;;;8.95;1.65;;;9.10;99.90;;;;;;5037362;28;20021;-78
2021/12/29 03:30:33;;;;;;;13.05;0.60;;;9.10;99.90;;;;;;5055255;28;20108;-79
2021/12/29 03:33:05;;;;;;;7.85;0.98;;;9.10;99.90;;;;;;5055305;28;20043;-78
2021/12/29 03:35:37;;;;;;;3.92;0.40;;;9.10;99.90;;;;;;5053315;28;20045;-78
2021/12/29 03:38:19;;;;;;;7.88;0.63;;;9.10;99.90;;;;;;5038440;28;20040;-77
2021/12/29 03:40:45;;;;;;;13.88;0.95;;;9.10;99.90;;;;;;5059120;28;20044;-78
2021/12/29 03:43:12;;;;;;;5.72;0.38;;;9.10;99.90;;;;;;5055653;28;20469;-77
2021/12/29 03:45:40;;;;;;;7.90;0.50;;;9.10;99.90;;;;;;5054971;28;20051;-77
2021/12/29 03:48:07;;;;;;;6.75;0.50;;;9.10;99.90;;;;;;5055133;28;20056;-78
2021/12/29 03:50:32;;;;;;;5.32;0.95;;;9.10;99.90;;;;;;5036904;28;20428;-77
2021/12/29 03:52:58;;;;;;;8.85;0.80;;;9.10;99.90;;;;;;5054703;28;20021;-77
2021/12/29 03:55:24;;;;;;;4.05;0.77;;;9.10;99.90;;;;;;5054609;28;20021;-77
2021/12/29 03:57:50;;;;;;;8.13;1.10;;;9.10;99.90;;;;;;5036738;28;20043;-78
2021/12/29 04:00:17;;;;;;;9.55;1.35;;;9.10;99.90;;;;;;5055111;28;20539;-77
2021/12/29 04:02:44;;;;;;;9.45;1.75;;;9.10;99.90;;;;;;5054350;28;20029;-77
2021/12/29 04:05:19;;;;;;;6.88;1.35;;;9.10;99.90;;;;;;5055157;28;20090;-77
2021/12/29 04:07:45;;;;;;;6.88;0.82;;;9.10;99.90;;;;;;5054727;28;20381;-77
2021/12/29 04:10:12;;;;;;;2.63;0.70;;;9.20;99.90;;;;;;5054186;28;20017;-77
2021/12/29 04:12:39;;;;;;;15.70;1.98;;;9.20;99.90;;;;;;5054445;28;20025;-77
2021/12/29 04:15:06;;;;;;;8.88;1.92;;;9.20;99.90;;;;;;5036244;28;20017;-77
2021/12/29 04:17:37;;;;;;;4.65;1.02;;;9.20;99.90;;;;;;5054136;28;20035;-76
2021/12/29 04:22:57;;;;;;;6.60;0.90;;;9.10;99.90;;;;;;5054333;28;20405;-77
2021/12/29 04:25:26;;;;;;;6.25;1.23;;;9.10;99.90;;;;;;5054415;28;20021;-76
2021/12/29 04:27:53;;;;;;;4.40;0.85;;;9.10;99.90;;;;;;5054378;28;20025;-77
2021/12/29 04:30:19;;;;;;;4.45;1.52;;;9.20;99.90;;;;;;5036141;28;20016;-77
2021/12/29 04:32:45;;;;;;;5.50;0.55;;;9.20;99.90;;;;;;5035967;28;20020;-77
2021/12/29 04:35:10;;;;;;;4.13;0.70;;;9.20;99.90;;;;;;5036077;28;20079;-78
2021/12/29 04:37:36;;;;;;;6.35;1.10;;;9.10;99.90;;;;;;5035930;28;20039;-78
2021/12/29 04:40:03;;;;;;;3.70;0.57;;;9.10;99.90;;;;;;5054100;28;20090;-78
2021/12/29 04:42:29;;;;;;;10.50;2.05;;;9.10;99.90;;;;;;5053835;28;20478;-78
2021/12/29 04:44:54;;;;;;;3.03;0.47;;;9.10;99.90;;;;;;5053863;28;20025;-78
2021/12/29 04:47:27;;;;;;;18.33;2.28;;;9.10;99.90;;;;;;5035700;28;20120;-76
2021/12/29 04:49:52;;;;;;;10.77;0.93;;;9.10;99.90;;;;;;5053669;28;20017;-77
2021/12/29 04:52:18;;;;;;;9.82;1.45;;;9.10;99.90;;;;;;5053727;28;20017;-77
2021/12/29 04:54:44;;;;;;;6.70;1.08;;;9.10;99.90;;;;;;5036249;28;20048;-76
2021/12/29 04:57:09;;;;;;;4.43;0.43;;;9.20;99.90;;;;;;5053758;28;20029;-76
2021/12/29 04:59:35;;;;;;;3.22;0.50;;;9.20;99.90;;;;;;5053762;28;20029;-77
2021/12/29 05:02:01;;;;;;;1.35;0.17;;;9.20;99.90;;;;;;5053868;28;20025;-77
2021/12/29 05:04:34;;;;;;;8.75;0.98;;;9.20;99.90;;;;;;5053662;28;20595;-77
2021/12/29 05:09:46;;;;;;;1.90;0.22;;;9.10;99.90;;;;;;5054479;28;20402;-77
2021/12/29 05:12:12;;;;;;;1.55;0.10;;;9.10;99.90;;;;;;5035519;28;20018;-76
2021/12/29 05:14:38;;;;;;;2.15;0.40;;;9.10;99.90;;;;;;5054030;28;20027;-76
2021/12/29 05:17:05;;;;;;;2.97;1.02;;;9.10;99.90;;;;;;5035553;28;20017;-75
2021/12/29 05:19:32;;;;;;;5.25;0.43;;;9.10;99.90;;;;;;5053446;28;20416;-75
2021/12/29 05:21:58;;;;;;;2.38;0.10;;;9.10;99.90;;;;;;5053179;28;20029;-75
2021/12/29 05:24:23;;;;;;;2.47;0.30;;;9.10;99.90;;;;;;5053294;28;20485;-76
2021/12/29 05:26:49;;;;;;;3.60;0.28;;;9.10;99.90;;;;;;5053361;28;20017;-76
2021/12/29 05:29:15;;;;;;;6.05;0.60;;;9.10;99.90;;;;;;5053289;28;20473;-76
2021/12/29 05:31:40;;;;;;;6.38;1.25;;;9.00;99.90;;;;;;5035337;28;20071;-76
2021/12/29 05:34:06;;;;;;;8.75;1.15;;;9.00;99.90;;;;;;5053835;28;20027;-76
2021/12/29 05:36:31;;;;;;;13.77;1.25;;;9.00;99.90;;;;;;5035205;28;20033;-76
2021/12/29 05:38:57;;;;;;;8.93;1.42;;;9.00;99.90;;;;;;5053177;28;20024;-76
2021/12/29 05:41:23;;;;;;;10.57;0.88;;;9.00;99.90;;;;;;5035494;28;20417;-77
2021/12/29 05:43:49;;;;;;;8.43;1.83;;;9.00;99.90;;;;;;5053065;28;20021;-76
2021/12/29 05:46:15;;;;;;;14.00;1.38;;;9.00;99.90;;;;;;5055729;28;20029;-77
2021/12/29 05:48:40;;;;;;;7.63;1.30;;;9.00;99.90;;;;;;5057209;28;20389;-77
2021/12/29 05:51:06;;;;;;;19.05;1.73;;;9.00;99.90;;;;;;5039170;28;20056;-77
2021/12/29 05:53:32;;;;;;;11.23;1.63;;;9.00;99.90;;;;;;5039163;28;20048;-76
2021/12/29 05:56:00;;;;;;;13.02;0.90;;;9.00;99.90;;;;;;5057031;28;20495;-76
2021/12/29 05:58:26;;;;;;;14.93;1.90;;;9.00;99.90;;;;;;5039096;28;20378;-76
2021/12/29 06:00:51;;;;;;;15.23;2.65;;;8.90;99.90;;;;;;5038839;28;20035;-76
2021/12/29 06:03:19;;;;;;;9.57;1.30;;;8.90;99.90;;;;;;5056669;28;20021;-77
2021/12/29 06:05:44;;;;;;;16.20;1.50;;;9.00;99.90;;;;;;5057217;28;20079;-77
2021/12/29 06:08:10;;;;;;;11.15;1.85;;;9.00;99.90;;;;;;5056971;28;20025;-77
2021/12/29 06:10:36;;;;;;;18.33;2.47;;;9.00;99.90;;;;;;5056868;28;20013;-78
2021/12/29 06:13:01;;;;;;;14.82;1.73;;;9.00;99.90;;;;;;5038958;28;20025;-78
2021/12/29 06:15:27;;;;;;;14.00;2.17;;;9.00;99.90;;;;;;5056703;28;20017;-78
2021/12/29 06:17:53;;;;;;;9.15;1.00;;;9.00;99.90;;;;;;5038779;28;20025;-78
2021/12/29 06:20:18;;;;;;;17.55;2.08;;;9.00;99.90;;;;;;5038673;28;20020;-78
2021/12/29 06:22:44;;;;;;;6.97;1.38;;;9.00;99.90;;;;;;5038663;28;20501;-78
2021/12/29 06:25:15;;;;;;;9.35;1.65;;;9.00;99.90;;;;;;5038535;28;20055;-78
2021/12/29 06:27:41;;;;;;;8.13;1.70;;;9.00;99.90;;;;;;5038479;28;20474;-78
2021/12/29 06:30:10;;;;;;;10.15;1.45;;;8.90;99.90;;;;;;5056292;28;20032;-77
2021/12/29 06:32:35;;;;;;;;;;;8.90;99.90;;;;;;5038629;28;20025;-77
2021/12/29 06:35:02;;;;;;;18.75;1.00;;;8.90;99.90;;;;;;5056979;28;20281;-79
2021/12/29 06:37:28;;;;;;;8.52;1.90;;;8.90;99.90;;;;;;5038120;28;20028;-73
2021/12/29 06:39:53;;;;;;;9.05;1.30;;;8.80;99.90;;;;;;5038172;28;20029;-74
2021/12/29 06:42:19;;;;;;;10.73;2.03;;;8.80;99.90;;;;;;5056135;28;20075;-76
2021/12/29 06:44:46;;;;;;;13.07;1.98;;;8.80;99.90;;;;;;5056072;28;20021;-75
2021/12/29 06:47:12;;;;;;;17.75;2.78;;;8.80;99.90;;;;;;5038380;28;20032;-75
2021/12/29 06:49:38;;;;;;;7.38;2.05;;;8.80;99.90;;;;;;5056054;28;20037;-76
2021/12/29 06:52:05;;;;;;;8.50;2.33;;;8.80;99.90;;;;;;5037971;28;20033;-75
2021/12/29 06:54:32;;;;;;;12.23;1.77;;;8.90;99.90;;;;;;5037954;28;20063;-76
2021/12/29 06:56:57;;;;;;;10.70;2.70;;;8.90;99.90;;;;;;5054721;28;20020;-77
2021/12/29 06:59:23;;;;;;;5.55;1.60;;;8.90;99.90;;;;;;5055706;28;20021;-76
2021/12/29 07:01:49;;;;;;;12.50;3.38;;;8.90;99.90;;;;;;5038066;28;20049;-76
2021/12/29 07:04:15;;;;;;;11.25;2.08;;;8.80;99.90;;;;;;5038012;28;20036;-76
2021/12/29 07:06:41;;;;;;;11.88;2.55;;;8.80;99.90;;;;;;5038142;28;20021;-78
2021/12/29 07:09:07;;;;;;;9.32;1.88;;;8.80;99.90;;;;;;5056454;28;20377;-77
2021/12/29 07:11:33;;;;;;;19.92;2.78;;;8.80;99.90;;;;;;5037667;28;20037;-77
2021/12/29 07:14:02;;;;;;;10.45;1.73;;;8.80;99.90;;;;;;5037910;28;20021;-76
2021/12/29 07:16:28;;;;;;;;;;;8.80;99.90;;;;;;5055997;28;20104;-76
2021/12/29 07:18:54;;;;;;;15.20;3.50;;;8.80;99.90;;;;;;5037872;28;19912;-76
2021/12/29 07:21:19;;;;;;;10.52;2.05;;;8.70;99.90;;;;;;5037635;28;20029;-77
2021/12/29 07:23:45;;;;;;;11.63;1.98;;;8.80;99.90;;;;;;5037629;28;20385;-77
2021/12/29 07:26:13;;;;;;;5.55;1.98;;;8.80;99.90;;;;;;5055511;28;20051;-76
2021/12/29 07:28:39;;;;;;;8.93;1.27;;;8.80;99.90;;;;;;5037173;28;20478;-77
2021/12/29 07:31:05;;;;;;;12.57;2.63;;;8.80;99.90;;;;;;5055057;28;20021;-77
2021/12/29 07:33:33;;;;;;;9.95;1.40;;;8.70;99.90;;;;;;5055197;28;20025;-77
2021/12/29 07:36:01;;;;;;;13.05;2.20;;;8.70;99.90;;;;;;5054789;28;20025;-74
2021/12/29 07:38:27;;;;;;;8.55;2.15;;;8.70;99.90;;;;;;5055292;28;20513;-74
2021/12/29 07:40:52;;;;;;;11.25;2.10;;;8.70;99.90;;;;;;5055224;28;20029;-75
2021/12/29 07:43:19;;;;;;;10.38;2.45;;;8.70;99.90;;;;;;5054967;28;20061;-75
2021/12/29 07:45:44;;;;;;;6.78;1.83;;;8.70;99.90;;;;;;5054943;28;20043;-74
2021/12/29 07:48:10;;;;;;;6.10;1.83;;;8.70;99.90;;;;;;5037033;28;20108;-75
2021/12/29 07:50:37;;;;;;;12.23;1.73;;;8.70;99.90;;;;;;5054719;28;20024;-77
2021/12/29 07:53:04;;;;;;;6.57;2.15;;;8.70;99.90;;;;;;5054971;28;20021;-77
2021/12/29 07:55:30;;;;;;;4.53;1.48;;;8.70;99.90;;;;;;5054519;28;20027;-78
2021/12/29 07:57:56;;;;;;;4.97;1.88;;;8.70;99.90;;;;;;5054423;28;20055;-76
2021/12/29 08:00:22;;;;;;;6.60;1.30;;;8.70;99.90;;;;;;5036778;28;20040;-77
2021/12/29 08:02:49;;;;;;;6.28;2.13;;;8.60;99.90;;;;;;5037176;28;20490;-76
2021/12/29 08:05:15;;;;;;;6.55;2.20;;;8.70;99.90;;;;;;5053133;28;20025;-76
2021/12/29 08:07:40;;;;;;;5.30;1.23;;;8.60;99.90;;;;;;5053786;28;20532;-76
2021/12/29 08:10:06;;;;;;;7.85;2.05;;;8.60;99.90;;;;;;5054641;28;20052;-77
2021/12/29 08:12:32;;;;;;;10.45;1.90;;;8.60;99.90;;;;;;5054118;28;20060;-78
2021/12/29 08:14:58;;;;;;;15.02;2.58;;;8.60;99.90;;;;;;5036504;28;20409;-76
2021/12/29 08:17:24;;;;;;;10.70;1.88;;;8.60;99.90;;;;;;5054155;28;20024;-75
2021/12/29 08:19:50;;;;;;;7.13;1.58;;;8.60;99.90;;;;;;5054192;28;20021;-76
2021/12/29 08:22:16;;;;;;;7.57;2.17;;;8.60;99.90;;;;;;5036426;28;20048;-76
2021/12/29 08:24:42;;;;;;;12.90;3.22;;;8.60;99.90;;;;;;5054097;28;20025;-76
2021/12/29 08:27:07;;;;;;;10.05;2.05;;;8.60;99.90;;;;;;5054230;28;20017;-75
2021/12/29 08:29:33;;;;;;;9.43;1.63;;;8.60;99.90;;;;;;5054077;28;20064;-79
2021/12/29 08:31:59;;;;;;;5.80;1.42;;;8.60;99.90;;;;;;5036469;28;20024;-79
2021/12/29 08:34:25;;;;;;;11.57;1.30;;;8.70;99.90;;;;;;5036228;28;20430;-78
2021/12/29 08:36:51;;;;;;;12.35;2.05;;;8.70;99.90;;;;;;5036522;28;20086;-78
2021/12/29 08:39:18;;;;;;;7.07;1.40;;;8.70;99.90;;;;;;5054348;28;20469;-79
2021/12/29 08:41:45;;;;;;;10.13;1.60;;;8.70;99.90;;;;;;5036229;28;20029;-79
2021/12/29 08:44:11;;;;;;;7.43;1.83;;;8.70;99.90;;;;;;5053874;28;20033;-79
2021/12/29 08:46:36;;;;;;;9.68;1.13;;;8.70;99.90;;;;;;5054079;28;20037;-80
2021/12/29 08:49:02;;;;;;;13.10;1.88;;;8.70;99.90;;;;;;5054006;28;20381;-79
2021/12/29 08:51:28;;;;;;;7.45;1.67;;;8.70;99.90;;;;;;5053631;28;20032;-79
2021/12/29 08:53:56;;;;;;;10.07;1.50;;;8.60;99.90;;;;;;5053933;28;20029;-80
2021/12/29 08:56:21;;;;;;;3.72;1.20;;;8.70;99.90;;;;;;5053713;28;20100;-79
2021/12/29 08:58:50;;;;;;;11.07;2.00;;;8.60;99.90;;;;;;5036370;28;20055;-80
2021/12/29 09:01:15;;;;;;;11.15;2.25;;;8.60;99.90;;;;;;5036121;28;20025;-79
2021/12/29 09:03:42;;;;;;;5.43;1.17;;;8.70;99.90;;;;;;5035634;28;20024;-79
2021/12/29 09:06:07;;;;;;;4.55;1.30;;;8.70;99.90;;;;;;5054014;28;20366;-77
2021/12/29 09:08:33;;;;;;;9.45;1.63;;;8.70;99.90;;;;;;5053598;28;20025;-79
2021/12/29 09:10:59;;;;;;;5.03;2.20;;;8.70;99.90;;;;;;5053713;28;20029;-78
2021/12/29 09:13:24;;;;;;;6.35;1.35;;;8.70;99.90;;;;;;5035708;28;20108;-78
2021/12/29 09:15:53;;;;;;;6.38;1.30;;;8.70;99.90;;;;;;5053239;28;20443;-79
2021/12/29 09:18:19;;;;;;;7.75;1.50;;;8.80;99.90;;;;;;5035753;28;20021;-78
2021/12/29 09:20:46;;;;;;;6.72;1.50;;;8.80;99.90;;;;;;5037748;28;20079;-78
2021/12/29 09:23:14;;;;;;;6.85;1.45;;;8.80;99.90;;;;;;5057276;28;20088;-78
2021/12/29 09:25:41;;;;;;;8.40;2.08;;;8.80;99.90;;;;;;5039570;28;20031;-78
2021/12/29 09:28:09;;;;;;;4.80;1.50;;;8.80;99.90;;;;;;5057751;28;20091;-78
2021/12/29 09:30:37;;;;;;;7.90;1.13;;;8.80;99.90;;;;;;5057705;28;20040;-78
2021/12/29 09:33:03;;;;;;;4.88;1.23;;;8.80;99.90;;;;;;5039113;28;20070;-78
2021/12/29 09:35:31;;;;;;;6.25;1.58;;;8.80;99.90;;;;;;5039505;28;20021;-79
2021/12/29 09:37:57;;;;;;;4.07;1.38;;;8.90;99.90;;;;;;5039322;28;20071;-78
2021/12/29 09:40:23;;;;;;;7.75;1.58;;;8.90;99.90;;;;;;5039446;28;20480;-78
2021/12/29 09:42:52;;;;;;;7.22;1.30;;;8.90;99.90;;;;;;5039364;28;20116;-78
2021/12/29 09:45:18;;;;;;;12.35;2.17;;;8.90;99.90;;;;;;5039269;28;20076;-79
2021/12/29 09:47:44;;;;;;;8.35;1.92;;;9.00;99.90;;;;;;5039734;28;20021;-77
2021/12/29 09:50:15;;;;;;;6.38;2.17;;;9.00;99.90;;;;;;5042572;28;20051;-80
2021/12/29 09:52:41;;;;;;;13.68;1.85;;;9.00;99.90;;;;;;5059644;28;20461;-79
2021/12/29 09:55:10;;;;;;;7.30;1.77;;;9.00;99.90;;;;;;5040818;28;20041;-79
2021/12/29 09:57:38;;;;;;;10.02;1.85;;;9.00;99.90;;;;;;5057491;28;20017;-77
2021/12/29 10:00:06;;;;;;;6.40;2.47;;;9.00;99.90;;;;;;5057145;28;20056;-76
2021/12/29 10:02:32;;;;;;;6.60;2.30;;;9.10;99.90;;;;;;5056476;28;20035;-77
2021/12/29 10:04:59;;;;;;;7.03;1.92;;;9.10;99.90;;;;;;5056375;28;20432;-76
2021/12/29 10:07:26;;;;;;;7.47;2.25;;;9.30;99.90;;;;;;5038525;28;20098;-75
2021/12/29 10:09:52;;;;;;;4.90;2.28;;;9.20;99.90;;;;;;5056446;28;20396;-75
2021/12/29 10:12:21;;;;;;;5.97;2.10;;;9.20;99.90;;;;;;5037644;28;20018;-76
2021/12/29 10:14:51;;;;;;;5.32;1.60;;;9.20;99.90;;;;;;5056190;28;20024;-76
2021/12/29 10:17:18;;;;;;;5.70;2.75;;;9.30;99.90;;;;;;5056229;28;20021;-76
2021/12/29 10:19:44;;;;;;;12.07;2.25;;;9.30;99.90;;;;;;5056268;28;20049;-76
2021/12/29 10:22:23;;;;;;;5.45;2.10;;;7.90;99.90;;;;;;5056239;28;20104;-76
2021/12/29 10:25:00;;;;;;;7.32;2.03;;;9.30;99.90;;;;;;5056356;28;20029;-76
2021/12/29 10:27:30;;;;;;;11.60;2.28;;;9.30;99.90;;;;;;5056286;28;20029;-76
2021/12/29 10:29:57;;;;;;;6.20;2.15;;;9.30;99.90;;;;;;5055677;28;20036;-75
2021/12/29 10:32:24;;;;;;;8.27;2.00;;;9.30;99.90;;;;;;5038294;28;20132;-75
2021/12/29 10:34:51;;;;;;;3.33;1.35;;;9.30;99.90;;;;;;5037828;28;20021;-76
2021/12/29 10:37:17;;;;;;;4.43;1.85;;;9.40;99.90;;;;;;5056434;28;20029;-76
2021/12/29 10:39:48;;;;;;;5.90;1.60;;;9.30;99.90;;;;;;5055768;28;20029;-76
2021/12/29 10:42:16;;;;;;;8.10;1.80;;;9.40;99.90;;;;;;5056153;28;20029;-76
2021/12/29 10:44:50;;;;;;;5.18;1.88;;;9.40;99.90;;;;;;5056551;28;20044;-75
2021/12/29 10:47:21;;;;;;;4.32;1.77;;;9.40;99.90;;;;;;5037422;28;20053;-75
2021/12/29 10:49:51;;;;;;;5.85;1.52;;;9.40;99.90;;;;;;5055421;28;20033;-76
2021/12/29 10:52:32;;;;;;;9.27;2.08;;;9.50;99.90;;;;;;5037730;28;20025;-75
2021/12/29 10:54:58;;;;;;;9.80;1.50;;;9.50;99.90;;;;;;5055758;28;20056;-77
2021/12/29 10:57:24;;;;;;;6.95;1.55;;;9.50;99.90;;;;;;5055934;28;20040;-78
2021/12/29 10:59:59;;;;;;;6.20;1.73;;;9.50;99.90;;;;;;5055896;28;20496;-74
2021/12/29 11:02:31;;;;;;;3.30;1.70;;;9.50;99.90;;;;;;5038979;28;20052;-74
2021/12/29 11:05:01;;;;;;;5.78;1.73;;;9.50;99.90;;;;;;5055711;28;20032;-77
2021/12/29 11:07:28;;;;;;;6.10;2.03;;;9.50;99.90;;;;;;5055894;28;20028;-77
2021/12/29 11:09:55;;;;;;;5.45;2.00;;;9.50;99.90;;;;;;5037856;28;20025;-79
2021/12/29 11:12:23;;;;;;;8.75;2.25;;;9.50;99.90;;;;;;5056150;28;20032;-77
2021/12/29 11:14:53;;;;;;;8.77;2.07;;;9.50;99.90;;;;;;5055995;28;20024;-78
2021/12/29 11:17:24;;;;;;;3.88;1.80;;;9.50;99.90;;;;;;5041338;28;20017;-80
2021/12/29 11:20:00;;;;;;;5.93;1.95;;;9.50;99.90;;;;;;5038952;28;20500;-82
2021/12/29 11:22:29;;;;;;;7.03;1.95;;;9.50;99.90;;;;;;5040413;28;20059;-89
2021/12/29 11:25:00;;;;;;;7.03;1.92;;;9.50;99.90;;;;;;5043125;28;20021;-82
2021/12/29 11:27:29;;;;;;;6.13;2.05;;;9.50;99.90;;;;;;5029590;28;20037;-78
2021/12/29 11:30:00;;;;;;;6.30;2.38;;;9.50;99.90;;;;;;5028719;28;20025;-76
2021/12/29 11:32:32;;;;;;;6.50;2.55;;;9.50;99.90;;;;;;5034244;28;20028;-75
2021/12/29 11:35:12;;;;;;;6.00;2.35;;;9.50;99.90;;;;;;5023318;28;20025;-76
2021/12/29 11:37:41;;;;;;;8.07;3.35;;;9.50;99.90;;;;;;5037242;28;20465;-77
2021/12/29 11:40:08;;;;;;;10.55;1.98;;;9.40;99.90;;;;;;5054718;28;20017;-77
2021/12/29 11:42:34;;;;;;;5.28;2.53;;;9.40;99.90;;;;;;5036189;28;20025;-78
2021/12/29 11:45:02;;;;;;;7.25;2.05;;;9.40;99.90;;;;;;5054777;28;20100;-74
2021/12/29 11:47:28;;;;;;;5.78;2.33;;;9.40;99.90;;;;;;5036791;28;20034;-73
2021/12/29 11:49:54;;;;;;;7.50;2.00;;;9.50;99.90;;;;;;5036903;28;20017;-72
2021/12/29 11:52:54;;;;;;;6.53;2.97;;;9.50;99.90;;;;;;5054728;28;20057;-73
2021/12/29 11:55:26;;;;;;;7.20;2.80;;;9.50;99.90;;;;;;5002982;28;20370;-72
2021/12/29 11:57:55;;;;;;;8.80;3.10;;;9.50;99.90;;;;;;5054709;28;20032;-73
2021/12/29 12:00:23;;;;;;;9.98;2.65;;;9.50;99.90;;;;;;5054286;28;20155;-72
2021/12/29 12:03:04;;;;;;;8.55;3.08;;;9.50;99.90;;;;;;5054282;28;20020;-73
2021/12/29 12:05:37;;;;;;;9.65;2.67;;;9.50;99.90;;;;;;5036875;28;20040;-72
2021/12/29 12:08:24;;;;;;;5.95;2.75;;;9.50;99.90;;;;;;5054350;28;20413;-72
2021/12/29 12:10:53;;;;;;;8.15;3.83;;;9.40;99.90;;;;;;5055041;28;20023;-73
2021/12/29 12:13:32;;;;;;;8.07;3.28;;;9.40;99.90;;;;;;5054306;28;20100;-72
2021/12/29 12:16:14;;;;;;;6.38;3.30;;;9.40;99.90;;;;;;5054249;28;20028;-72
2021/12/29 12:18:44;;;;;;;8.18;2.90;;;9.40;99.90;;;;;;5054471;28;20029;-73
2021/12/29 12:21:19;;;;;;;5.68;2.42;;;9.40;99.90;;;;;;5053937;28;20056;-75
2021/12/29 12:23:45;;;;;;;5.03;2.13;;;9.40;99.90;;;;;;5035297;28;20035;-75
2021/12/29 12:26:11;;;;;;;8.45;3.17;;;9.40;99.90;;;;;;5053225;28;20029;-75
2021/12/29 12:28:48;;;;;;;7.45;2.40;;;9.40;99.90;;;;;;5035062;28;20017;-75
2021/12/29 12:31:40;;;;;;;7.97;2.58;;;9.40;99.90;;;;;;5054038;28;20029;-75
2021/12/29 12:34:13;;;;;;;6.85;2.38;;;9.40;99.90;;;;;;5020722;28;20526;-75
2021/12/29 12:36:40;;;;;;;5.57;2.05;;;9.40;99.90;;;;;;5035911;28;20036;-75
2021/12/29 12:39:15;;;;;;;8.48;2.50;;;9.40;99.90;;;;;;5053698;28;20025;-73
2021/12/29 12:41:43;;;;;;;13.27;2.97;;;9.40;99.90;;;;;;5053337;28;20061;-73
2021/12/29 12:44:10;;;;;;;6.85;3.20;;;9.40;99.90;;;;;;5053082;28;20063;-74
2021/12/29 12:46:41;;;;;;;8.45;2.28;;;9.40;99.90;;;;;;5052764;28;20029;-74
2021/12/29 12:49:15;;;;;;;9.18;2.75;;;9.40;99.90;;;;;;5054386;28;20035;-75
2021/12/29 12:51:54;;;;;;;8.45;2.10;;;9.40;99.90;;;;;;5053786;28;20036;-75
2021/12/29 12:54:21;;;;;;;6.72;2.05;;;9.40;99.90;;;;;;5052799;28;20048;-74
2021/12/29 12:56:48;;;;;;;8.65;2.60;;;9.40;99.90;;;;;;5052786;28;20029;-76
2021/12/29 12:59:17;;;;;;;9.23;1.85;;;9.30;99.90;;;;;;5052731;28;20119;-75
2021/12/29 13:01:50;;;;;;;11.43;2.78;;;9.30;99.90;;;;;;5052632;28;20043;-75
2021/12/29 13:04:17;;;;;;;5.65;2.42;;;9.30;99.90;;;;;;5053438;28;20021;-73
2021/12/29 13:06:49;;;;;;;6.35;1.92;;;9.30;99.90;;;;;;5035031;28;20032;-73